Time;durP1;ratioP1;P1;durP2;ratioP2;P2;SDS_P1;SDS_P2;PMS_P1;PMS_P2;Temp;Humidity;BMP_temperature;BMP_pressure;BME280_temperature;BME280_humidity;BME280_pressure;Samples;Min_cycle;Max_cycle;Signal;HPM_P1;HPM_P2
2021/03/13 00:00:15;;;;;;;2.20;1.10;;;6.90;99.90;;;;;;5031175;28;20570;-67
2021/03/13 00:02:42;;;;;;;1.60;1.03;;;6.90;99.90;;;;;;5031672;28;20198;-67
2021/03/13 00:05:09;;;;;;;4.13;0.90;;;7.00;99.30;;;;;;5033250;28;20433;-67
2021/03/13 00:07:35;;;;;;;1.83;1.00;;;6.90;99.90;;;;;;5032202;28;20757;-67
2021/03/13 00:10:01;;;;;;;2.40;1.33;;;6.90;99.80;;;;;;5031732;28;20422;-67
2021/03/13 00:12:26;;;;;;;2.10;1.10;;;6.90;99.80;;;;;;5032082;28;20658;-67
2021/03/13 00:14:52;;;;;;;4.57;1.83;;;6.80;99.90;;;;;;5030059;28;20201;-67
2021/03/13 00:17:18;;;;;;;3.10;1.20;;;6.80;99.90;;;;;;5022054;28;20606;-67
2021/03/13 00:19:43;;;;;;;2.60;1.20;;;6.80;99.60;;;;;;5032781;28;20210;-67
2021/03/13 00:22:09;;;;;;;5.53;1.03;;;6.80;99.80;;;;;;5035428;28;20306;-67
2021/03/13 00:24:35;;;;;;;2.23;0.87;;;6.90;99.90;;;;;;5037269;28;20231;-67
2021/03/13 00:27:01;;;;;;;5.10;1.70;;;6.90;99.90;;;;;;5035143;28;20236;-67
2021/03/13 00:29:27;;;;;;;3.80;1.47;;;7.00;99.90;;;;;;5036988;28;20203;-67
2021/03/13 00:31:54;;;;;;;1.90;0.90;;;7.10;99.90;;;;;;5036133;28;20435;-67
2021/03/13 00:34:21;;;;;;;2.53;0.93;;;7.10;99.90;;;;;;5036963;28;20170;-67
2021/03/13 00:36:47;;;;;;;1.50;0.80;;;7.20;99.90;;;;;;5035804;28;20572;-67
2021/03/13 00:39:13;;;;;;;1.60;0.90;;;7.20;99.40;;;;;;5036607;28;20960;-67
2021/03/13 00:41:39;;;;;;;3.40;0.93;;;7.30;99.90;;;;;;5035559;28;20545;-67
2021/03/13 00:44:05;;;;;;;2.47;1.10;;;7.30;99.40;;;;;;5036772;28;20401;-67
2021/03/13 00:46:31;;;;;;;3.87;1.10;;;7.40;99.50;;;;;;5035577;28;20178;-67
2021/03/13 00:48:57;;;;;;;2.17;1.30;;;7.40;99.30;;;;;;5036514;28;20444;-67
2021/03/13 00:51:22;;;;;;;2.17;0.90;;;7.40;99.40;;;;;;5035567;28;20467;-67
2021/03/13 00:53:48;;;;;;;1.70;1.03;;;7.40;99.70;;;;;;5034499;28;20188;-67
2021/03/13 00:56:14;;;;;;;2.47;1.00;;;7.40;99.90;;;;;;5036626;28;20184;-67
2021/03/13 00:58:39;;;;;;;2.47;1.20;;;7.30;99.90;;;;;;5035324;28;20670;-67
2021/03/13 01:01:05;;;;;;;1.63;1.00;;;7.20;99.90;;;;;;5036283;28;20561;-67
2021/03/13 01:03:31;;;;;;;2.47;1.00;;;7.10;99.80;;;;;;5035631;28;20262;-67
2021/03/13 01:05:56;;;;;;;2.33;1.07;;;7.10;99.90;;;;;;5033599;28;20177;-67
2021/03/13 01:08:22;;;;;;;2.33;1.00;;;7.10;99.90;;;;;;5035122;28;20695;-67
2021/03/13 01:10:49;;;;;;;1.50;0.90;;;7.10;99.90;;;;;;5036191;28;20182;-67
2021/03/13 01:13:16;;;;;;;2.43;1.20;;;7.00;99.90;;;;;;5035165;28;20459;-67
2021/03/13 01:15:44;;;;;;;2.60;1.30;;;7.00;99.90;;;;;;5026336;28;20508;-67
2021/03/13 01:18:09;;;;;;;1.57;0.87;;;6.90;99.90;;;;;;5028311;28;20481;-67
2021/03/13 01:20:36;;;;;;;1.80;0.90;;;6.90;99.90;;;;;;5035809;28;20487;-67
2021/03/13 01:23:02;;;;;;;1.80;1.10;;;6.90;99.90;;;;;;5034937;28;20174;-67
2021/03/13 01:25:28;;;;;;;1.50;0.90;;;6.90;99.90;;;;;;5034717;28;20418;-67
2021/03/13 01:27:54;;;;;;;1.93;1.00;;;6.90;99.90;;;;;;5034787;28;20789;-67
2021/03/13 01:30:21;;;;;;;1.30;0.80;;;6.90;99.90;;;;;;5035903;28;20417;-67
2021/03/13 01:32:48;;;;;;;3.00;0.93;;;6.90;99.90;;;;;;5033625;28;20176;-67
2021/03/13 01:35:15;;;;;;;4.40;1.10;;;6.90;99.90;;;;;;5036058;28;20412;-67
2021/03/13 01:37:40;;;;;;;1.30;0.80;;;6.90;99.90;;;;;;5034647;28;20791;-67
2021/03/13 01:40:16;;;;;;;1.90;0.83;;;6.90;99.90;;;;;;5034448;28;20536;-67
2021/03/13 01:42:43;;;;;;;2.10;1.00;;;6.80;99.90;;;;;;5034595;28;20285;-67
2021/03/13 01:45:11;;;;;;;1.40;0.90;;;6.90;99.90;;;;;;5035698;28;20409;-67
2021/03/13 01:47:37;;;;;;;1.93;1.13;;;6.90;99.90;;;;;;5034531;28;20435;-67
2021/03/13 01:50:05;;;;;;;1.60;0.80;;;6.80;99.90;;;;;;5035416;28;20464;-67
2021/03/13 01:52:32;;;;;;;1.50;1.00;;;6.90;99.90;;;;;;5034353;28;20515;-67
2021/03/13 01:54:58;;;;;;;1.63;0.93;;;6.80;99.90;;;;;;5033556;28;20412;-66
2021/03/13 01:57:26;;;;;;;2.20;0.97;;;6.90;99.90;;;;;;5028926;28;20431;-67
2021/03/13 01:59:52;;;;;;;2.27;1.10;;;6.80;99.90;;;;;;5035671;28;20821;-66
2021/03/13 02:02:18;;;;;;;1.70;1.10;;;6.90;99.90;;;;;;5034115;28;20446;-67
2021/03/13 02:04:44;;;;;;;1.30;0.80;;;6.90;99.90;;;;;;5035340;28;20162;-67
2021/03/13 02:07:12;;;;;;;2.13;1.10;;;6.90;99.90;;;;;;5034145;28;20421;-67
2021/03/13 02:10:11;;;;;;;2.60;1.27;;;7.00;99.90;;;;;;5035138;28;20190;-67
2021/03/13 02:13:01;;;;;;;2.00;1.10;;;7.00;99.90;;;;;;5032994;28;20429;-68
2021/03/13 02:15:41;;;;;;;4.50;1.10;;;7.00;99.90;;;;;;5030570;28;20419;-68
2021/03/13 02:18:43;;;;;;;5.87;1.13;;;7.00;99.90;;;;;;5025304;28;20798;-68
2021/03/13 02:21:29;;;;;;;1.80;1.03;;;7.00;99.90;;;;;;5035778;28;20833;-68
2021/03/13 02:24:09;;;;;;;3.23;0.93;;;7.10;99.90;;;;;;5033980;28;20425;-68
2021/03/13 02:27:07;;;;;;;3.10;0.97;;;7.10;99.90;;;;;;5034160;28;20729;-67
2021/03/13 02:29:35;;;;;;;1.60;1.10;;;7.20;99.90;;;;;;5031489;28;21045;-67
2021/03/13 02:32:07;;;;;;;1.40;0.80;;;7.30;99.90;;;;;;5033304;28;20433;-67
2021/03/13 02:34:39;;;;;;;2.60;1.17;;;7.30;99.90;;;;;;5032850;28;20467;-68
2021/03/13 02:37:10;;;;;;;1.80;1.10;;;7.20;99.90;;;;;;5034960;28;20391;-68
2021/03/13 02:39:38;;;;;;;1.80;0.93;;;7.20;99.90;;;;;;5032383;28;20460;-67
2021/03/13 02:42:04;;;;;;;5.83;1.10;;;7.20;99.90;;;;;;5034709;28;20969;-68
2021/03/13 02:44:34;;;;;;;1.70;0.93;;;7.20;99.90;;;;;;5032927;28;20437;-68
2021/03/13 02:47:02;;;;;;;2.10;1.00;;;7.10;99.90;;;;;;5034644;28;20462;-68
2021/03/13 02:49:28;;;;;;;3.93;1.10;;;7.10;99.90;;;;;;5033349;28;20458;-66
2021/03/13 02:51:55;;;;;;;2.43;1.07;;;7.00;99.90;;;;;;5033521;28;20932;-67
2021/03/13 02:54:23;;;;;;;1.50;0.83;;;7.00;99.90;;;;;;5033406;28;20433;-68
2021/03/13 02:56:50;;;;;;;3.30;1.20;;;6.90;99.90;;;;;;5027954;28;20412;-67
2021/03/13 02:59:19;;;;;;;1.53;1.00;;;6.80;99.90;;;;;;5026721;28;20458;-67
2021/03/13 03:01:49;;;;;;;1.60;1.00;;;6.80;99.90;;;;;;5030854;28;20453;-67
2021/03/13 03:04:16;;;;;;;2.33;1.70;;;6.70;99.90;;;;;;5032295;28;20508;-67
2021/03/13 03:06:47;;;;;;;3.80;1.17;;;6.70;99.90;;;;;;5034064;28;20409;-68
2021/03/13 03:09:14;;;;;;;2.43;1.07;;;6.60;99.90;;;;;;5033026;28;20453;-69
2021/03/13 03:11:41;;;;;;;1.30;0.77;;;6.60;99.90;;;;;;5034021;28;20504;-67
2021/03/13 03:14:14;;;;;;;4.40;1.10;;;6.60;99.90;;;;;;5033034;28;20421;-67
2021/03/13 03:16:42;;;;;;;2.00;0.90;;;6.60;99.90;;;;;;5033957;28;20430;-67
2021/03/13 03:19:09;;;;;;;1.90;1.00;;;6.50;99.90;;;;;;5031515;28;20496;-67
2021/03/13 03:21:38;;;;;;;1.80;1.00;;;6.50;99.90;;;;;;5033666;28;20461;-66
2021/03/13 03:24:06;;;;;;;2.07;0.90;;;6.50;99.90;;;;;;5032673;28;20479;-66
2021/03/13 03:26:32;;;;;;;3.10;1.27;;;6.50;99.90;;;;;;5033730;28;20891;-67
2021/03/13 03:28:58;;;;;;;2.00;0.90;;;6.50;99.90;;;;;;5032528;28;20811;-66
2021/03/13 03:31:24;;;;;;;3.33;1.20;;;6.40;99.90;;;;;;5033649;28;20408;-67
2021/03/13 03:33:49;;;;;;;1.63;0.90;;;6.40;99.90;;;;;;5027467;28;20264;-67
2021/03/13 03:36:15;;;;;;;1.40;0.90;;;6.40;99.90;;;;;;5013797;28;20174;-67
2021/03/13 03:38:41;;;;;;;1.53;1.00;;;6.30;99.90;;;;;;5020361;28;20202;-67
2021/03/13 03:41:07;;;;;;;1.73;0.97;;;6.30;99.90;;;;;;5033473;28;20214;-67
2021/03/13 03:44:05;;;;;;;3.43;1.17;;;6.30;99.90;;;;;;5032562;28;20533;-68
2021/03/13 03:46:35;;;;;;;3.40;1.00;;;6.30;99.90;;;;;;5033273;28;20422;-67
2021/03/13 03:49:04;;;;;;;1.80;1.10;;;6.30;99.90;;;;;;5031672;28;20502;-67
2021/03/13 03:51:30;;;;;;;2.00;1.07;;;6.20;99.90;;;;;;5033420;28;20411;-67
2021/03/13 03:53:59;;;;;;;3.73;1.27;;;6.10;99.90;;;;;;5031234;28;20429;-66
2021/03/13 03:56:26;;;;;;;1.57;1.00;;;6.10;99.90;;;;;;5029204;28;20445;-66
2021/03/13 03:58:53;;;;;;;2.27;1.07;;;6.10;99.90;;;;;;5016387;28;20447;-68
2021/03/13 04:01:22;;;;;;;2.13;0.90;;;6.10;99.90;;;;;;5033395;28;20453;-67
2021/03/13 04:03:51;;;;;;;1.90;1.13;;;6.00;99.90;;;;;;5032040;28;20439;-67
2021/03/13 04:06:18;;;;;;;2.90;1.10;;;6.00;99.90;;;;;;5032136;28;20910;-67
2021/03/13 04:08:47;;;;;;;2.07;1.27;;;6.00;99.90;;;;;;5029131;28;20539;-67
2021/03/13 04:11:18;;;;;;;1.70;1.10;;;6.10;99.90;;;;;;5012205;28;20483;-67
2021/03/13 04:13:45;;;;;;;3.70;1.10;;;6.10;99.90;;;;;;5014332;28;20413;-67
2021/03/13 04:16:12;;;;;;;1.50;0.90;;;6.10;99.90;;;;;;5033073;28;20457;-67
2021/03/13 04:18:39;;;;;;;6.80;1.13;;;6.20;99.90;;;;;;5030673;28;20459;-67
2021/03/13 04:21:06;;;;;;;1.80;1.27;;;6.10;99.90;;;;;;5032964;28;20435;-67
2021/03/13 04:23:33;;;;;;;2.43;1.20;;;6.10;99.90;;;;;;5032528;28;20906;-66
2021/03/13 04:26:00;;;;;;;2.00;0.90;;;6.20;99.90;;;;;;5032995;28;20426;-67
2021/03/13 04:28:26;;;;;;;2.40;0.97;;;6.20;99.90;;;;;;5033037;28;20496;-67
2021/03/13 04:30:52;;;;;;;1.60;1.10;;;6.30;99.90;;;;;;5030789;28;20629;-69
2021/03/13 04:33:20;;;;;;;1.80;0.93;;;6.20;99.90;;;;;;5033102;28;20220;-68
2021/03/13 04:35:48;;;;;;;2.13;1.00;;;6.20;99.90;;;;;;5030140;28;20432;-67
2021/03/13 04:38:17;;;;;;;2.90;1.03;;;6.20;99.90;;;;;;5032923;28;20858;-67
2021/03/13 04:40:45;;;;;;;1.30;0.80;;;6.20;99.90;;;;;;5031880;28;20949;-67
2021/03/13 04:43:11;;;;;;;1.63;0.70;;;6.20;99.90;;;;;;5032762;28;20411;-67
2021/03/13 04:45:38;;;;;;;3.73;1.30;;;6.20;99.90;;;;;;5031679;28;20430;-66
2021/03/13 04:48:04;;;;;;;2.17;1.00;;;6.20;99.90;;;;;;5031279;28;20926;-66
2021/03/13 04:50:30;;;;;;;1.50;0.90;;;6.30;99.90;;;;;;5029010;28;20453;-66
2021/03/13 04:52:56;;;;;;;1.40;0.77;;;6.20;99.90;;;;;;5031920;28;20937;-66
2021/03/13 04:55:22;;;;;;;4.80;1.23;;;6.20;99.90;;;;;;5031619;28;20827;-66
2021/03/13 04:57:48;;;;;;;1.70;1.10;;;6.30;99.90;;;;;;5032610;28;20179;-67
2021/03/13 05:00:16;;;;;;;3.40;1.20;;;6.40;99.90;;;;;;5031319;28;20214;-66
2021/03/13 05:02:42;;;;;;;1.53;0.80;;;6.40;99.90;;;;;;5032522;28;20446;-67
2021/03/13 05:05:09;;;;;;;4.03;1.07;;;6.50;99.90;;;;;;5031328;28;20583;-67
2021/03/13 05:07:35;;;;;;;2.23;1.07;;;6.60;99.90;;;;;;5033936;28;20413;-67
2021/03/13 05:10:01;;;;;;;1.50;0.90;;;6.60;99.90;;;;;;5035222;28;20796;-67
2021/03/13 05:12:27;;;;;;;1.30;0.80;;;6.70;99.90;;;;;;5035144;28;20504;-67
2021/03/13 05:14:52;;;;;;;2.57;1.00;;;6.70;99.90;;;;;;5035068;28;20438;-67
2021/03/13 05:17:19;;;;;;;1.73;0.93;;;6.80;99.90;;;;;;5036182;28;20627;-67
2021/03/13 05:19:45;;;;;;;1.40;0.90;;;6.80;99.90;;;;;;5033876;28;20219;-67
2021/03/13 05:22:11;;;;;;;2.43;1.03;;;6.80;99.90;;;;;;5036094;28;20449;-67
2021/03/13 05:24:37;;;;;;;1.70;1.00;;;6.80;99.90;;;;;;5034982;28;20181;-67
2021/03/13 05:27:03;;;;;;;1.87;0.90;;;6.70;99.90;;;;;;5035965;28;20421;-67
2021/03/13 05:29:29;;;;;;;3.10;1.20;;;6.70;99.90;;;;;;5034799;28;20445;-67
2021/03/13 05:31:54;;;;;;;6.23;1.00;;;6.80;99.90;;;;;;5036117;28;20459;-67
2021/03/13 05:34:20;;;;;;;3.07;0.90;;;6.80;99.90;;;;;;5028755;28;20179;-67
2021/03/13 05:36:47;;;;;;;2.53;0.90;;;6.70;99.90;;;;;;5035854;28;20256;-67
2021/03/13 05:39:12;;;;;;;2.47;1.23;;;6.70;99.90;;;;;;5032430;28;20202;-67
2021/03/13 05:41:39;;;;;;;2.87;0.97;;;6.60;99.90;;;;;;5034554;28;20510;-67
2021/03/13 05:44:06;;;;;;;2.20;1.10;;;6.50;99.90;;;;;;5035087;28;20164;-67
2021/03/13 05:46:36;;;;;;;3.60;1.47;;;6.50;99.90;;;;;;5033932;28;20475;-67
2021/03/13 05:49:06;;;;;;;1.60;1.00;;;6.50;99.90;;;;;;5035583;28;20455;-67
2021/03/13 05:51:36;;;;;;;2.63;0.87;;;6.50;99.90;;;;;;5035189;28;20435;-67
2021/03/13 05:54:06;;;;;;;3.03;1.33;;;6.50;99.90;;;;;;5035806;28;20415;-69
2021/03/13 05:56:32;;;;;;;2.00;0.97;;;6.50;99.90;;;;;;5034684;28;20435;-68
2021/03/13 05:58:59;;;;;;;1.80;0.90;;;6.40;99.90;;;;;;5034254;28;20817;-67
2021/03/13 06:01:28;;;;;;;1.50;0.87;;;6.40;99.90;;;;;;5034338;28;20458;-68
2021/03/13 06:03:55;;;;;;;1.93;0.90;;;6.40;99.90;;;;;;5035691;28;20413;-68
2021/03/13 06:06:22;;;;;;;1.73;0.90;;;6.40;99.90;;;;;;5034189;28;20429;-68
2021/03/13 06:08:49;;;;;;;2.33;1.17;;;6.50;99.90;;;;;;5035179;28;20430;-68
2021/03/13 06:11:17;;;;;;;3.83;0.90;;;6.50;99.90;;;;;;5034119;28;20437;-67
2021/03/13 06:13:43;;;;;;;1.50;0.80;;;6.60;99.90;;;;;;5035161;28;20419;-67
2021/03/13 06:16:09;;;;;;;1.60;0.80;;;6.60;99.90;;;;;;5034077;28;20437;-69
2021/03/13 06:18:54;;;;;;;1.50;0.80;;;6.60;99.90;;;;;;5034330;28;20234;-67
2021/03/13 06:21:37;;;;;;;2.77;1.20;;;6.70;99.90;;;;;;5033938;28;20453;-67
2021/03/13 06:24:31;;;;;;;4.00;1.10;;;6.70;99.90;;;;;;5033874;28;20436;-67
2021/03/13 06:26:59;;;;;;;3.20;1.30;;;6.80;99.90;;;;;;5015268;28;20410;-67
2021/03/13 06:29:26;;;;;;;1.50;0.90;;;6.90;99.90;;;;;;5015373;28;20525;-67
2021/03/13 06:32:05;;;;;;;1.40;0.80;;;6.90;99.90;;;;;;5034824;28;20409;-67
2021/03/13 06:34:31;;;;;;;2.50;0.80;;;7.00;99.90;;;;;;5025088;28;20413;-67
2021/03/13 06:37:25;;;;;;;1.70;0.80;;;7.00;99.90;;;;;;5034579;28;20414;-67
2021/03/13 06:39:52;;;;;;;3.37;1.07;;;7.10;99.90;;;;;;5033620;28;20201;-67
2021/03/13 06:42:29;;;;;;;3.10;1.00;;;7.20;99.90;;;;;;5034693;28;20454;-67
2021/03/13 06:44:58;;;;;;;1.40;0.80;;;7.30;99.90;;;;;;5033320;28;20436;-67
2021/03/13 06:47:37;;;;;;;2.60;1.00;;;7.40;99.90;;;;;;5034325;28;20415;-67
2021/03/13 06:50:13;;;;;;;2.77;1.30;;;7.40;99.90;;;;;;5033286;28;20452;-67
2021/03/13 06:52:41;;;;;;;1.73;0.90;;;7.40;99.90;;;;;;5034361;28;20393;-67
2021/03/13 06:55:13;;;;;;;1.50;1.00;;;7.50;99.90;;;;;;5033297;28;20430;-66
2021/03/13 06:57:39;;;;;;;1.67;1.00;;;7.40;99.90;;;;;;5034331;28;20389;-67
2021/03/13 07:00:06;;;;;;;2.60;0.80;;;7.40;99.90;;;;;;5032956;28;20450;-68
2021/03/13 07:02:31;;;;;;;2.53;1.00;;;7.40;99.90;;;;;;5018113;28;20241;-67
2021/03/13 07:05:09;;;;;;;1.93;1.00;;;7.40;99.90;;;;;;5027354;28;20422;-67
2021/03/13 07:07:35;;;;;;;2.90;0.93;;;7.40;99.90;;;;;;5033999;28;20168;-67
2021/03/13 07:10:06;;;;;;;1.63;1.07;;;7.50;99.90;;;;;;5032911;28;20441;-67
2021/03/13 07:12:35;;;;;;;2.37;0.87;;;7.50;99.90;;;;;;5034378;28;20966;-67
2021/03/13 07:15:24;;;;;;;1.50;0.90;;;7.50;99.90;;;;;;5032890;28;20429;-66
2021/03/13 07:17:55;;;;;;;1.70;0.90;;;7.60;99.90;;;;;;5033404;28;20459;-68
2021/03/13 07:20:29;;;;;;;1.80;0.90;;;7.70;99.90;;;;;;5032467;28;20647;-67
2021/03/13 07:22:57;;;;;;;1.57;0.80;;;7.80;99.90;;;;;;5031964;28;20445;-69
2021/03/13 07:25:25;;;;;;;2.90;0.87;;;7.90;99.90;;;;;;5032461;28;20424;-70
2021/03/13 07:28:02;;;;;;;1.83;1.00;;;8.00;99.90;;;;;;5033649;28;20458;-68
2021/03/13 07:30:31;;;;;;;2.13;0.90;;;8.20;99.90;;;;;;5032445;28;20817;-68
2021/03/13 07:33:03;;;;;;;1.50;0.80;;;8.40;99.90;;;;;;5020132;28;20448;-71
2021/03/13 07:35:38;;;;;;;1.80;1.00;;;8.60;99.90;;;;;;5030494;28;20445;-69
2021/03/13 07:38:06;;;;;;;1.90;1.00;;;8.70;99.90;;;;;;5028821;28;20462;-69
2021/03/13 07:40:39;;;;;;;1.67;1.10;;;8.70;99.90;;;;;;5025086;28;20455;-71
2021/03/13 07:43:07;;;;;;;1.70;0.90;;;8.90;99.90;;;;;;5020240;28;20502;-71
2021/03/13 07:45:33;;;;;;;1.80;0.80;;;9.10;99.90;;;;;;5032070;28;20444;-68
2021/03/13 07:48:00;;;;;;;2.90;0.90;;;9.20;99.90;;;;;;5033200;28;20414;-68
2021/03/13 07:50:26;;;;;;;2.07;1.00;;;9.30;99.90;;;;;;5031941;28;20453;-69
2021/03/13 07:52:52;;;;;;;1.80;0.90;;;9.40;99.90;;;;;;5033047;28;20829;-68
2021/03/13 07:55:19;;;;;;;1.90;1.00;;;9.50;99.90;;;;;;5031419;28;20171;-69
2021/03/13 07:57:47;;;;;;;1.60;1.07;;;9.50;99.90;;;;;;5031846;28;20425;-68
2021/03/13 08:00:13;;;;;;;1.57;1.00;;;9.50;99.90;;;;;;5031651;28;20454;-68
2021/03/13 08:02:48;;;;;;;2.33;0.90;;;9.50;99.90;;;;;;5032670;28;20454;-68
2021/03/13 08:05:18;;;;;;;5.33;1.20;;;9.50;99.90;;;;;;5031316;28;20866;-69
2021/03/13 08:08:00;;;;;;;2.67;1.20;;;9.60;99.90;;;;;;5031579;28;20800;-69
2021/03/13 08:10:53;;;;;;;1.67;0.90;;;9.60;99.90;;;;;;5029743;28;20466;-68
2021/03/13 08:13:28;;;;;;;1.83;0.90;;;9.60;99.90;;;;;;5032958;28;20417;-69
2021/03/13 08:16:05;;;;;;;3.10;1.10;;;9.60;99.90;;;;;;5031654;28;20480;-68
2021/03/13 08:18:44;;;;;;;4.70;1.17;;;9.60;99.90;;;;;;5032759;28;20434;-68
2021/03/13 08:21:22;;;;;;;2.70;1.10;;;9.60;99.90;;;;;;5031681;28;20450;-69
2021/03/13 08:23:51;;;;;;;3.10;1.00;;;9.60;99.90;;;;;;5032945;28;20460;-68
2021/03/13 08:26:43;;;;;;;2.30;0.90;;;9.60;99.90;;;;;;5031961;28;20421;-68
2021/03/13 08:29:11;;;;;;;3.43;1.67;;;9.60;99.90;;;;;;5032196;28;20803;-68
2021/03/13 08:31:44;;;;;;;2.37;1.00;;;9.60;99.90;;;;;;5031799;28;20441;-73
2021/03/13 08:34:18;;;;;;;3.00;1.10;;;9.60;99.90;;;;;;5026218;28;20415;-70
2021/03/13 08:36:47;;;;;;;1.53;0.97;;;9.70;99.90;;;;;;5022750;28;20925;-69
2021/03/13 08:39:14;;;;;;;1.80;1.00;;;9.80;99.90;;;;;;5032332;28;20444;-68
2021/03/13 08:41:42;;;;;;;2.00;1.23;;;9.80;99.90;;;;;;5032273;28;20990;-68
2021/03/13 08:44:31;;;;;;;1.97;0.90;;;9.90;99.90;;;;;;5036479;28;20409;-67
2021/03/13 08:47:03;;;;;;;1.50;0.83;;;;;;;;;;5033435;28;20604;-69
2021/03/13 08:49:29;;;;;;;1.93;0.83;;;;;;;;;;5032847;28;20457;-68
2021/03/13 08:52:05;;;;;;;1.90;1.07;;;;;;;;;;5034887;28;20439;-67
2021/03/13 08:54:47;;;;;;;1.70;1.00;;;;;;;;;;5035279;28;20479;-68
2021/03/13 08:57:14;;;;;;;2.80;1.27;;;;;;;;;;5035784;28;20785;-68
2021/03/13 08:59:44;;;;;;;1.90;1.00;;;;;;;;;;5035675;28;20434;-68
2021/03/13 09:02:12;;;;;;;3.80;1.00;;;;;;;;;;5034682;28;20441;-68
2021/03/13 09:04:39;;;;;;;1.80;1.03;;;;;;;;;;5036262;28;20423;-67
2021/03/13 09:07:06;;;;;;;2.33;1.10;;;;;;;;;;5035000;28;20534;-68
2021/03/13 09:09:33;;;;;;;2.10;1.00;;;;;;;;;;5032980;28;20438;-66
2021/03/13 09:11:59;;;;;;;1.93;1.03;;;;;;;;;;5031708;28;20437;-69
2021/03/13 09:14:26;;;;;;;2.57;0.90;;;;;;;;;;5031620;28;20497;-67
2021/03/13 09:16:52;;;;;;;2.10;0.90;;;;;;;;;;5034364;28;20434;-67
2021/03/13 09:19:18;;;;;;;3.73;1.60;;;;;;;;;;5034001;28;20504;-67
2021/03/13 09:21:49;;;;;;;2.70;0.87;;;;;;;;;;5035003;28;20449;-67
2021/03/13 09:24:20;;;;;;;2.57;1.07;;;;;;;;;;5035093;28;20745;-67
2021/03/13 09:26:56;;;;;;;3.37;1.00;;;;;;;;;;5034905;28;20472;-67
2021/03/13 09:29:30;;;;;;;4.03;1.43;;;;;;;;;;5036591;28;20414;-67
2021/03/13 09:31:56;;;;;;;2.30;1.10;;;;;;;;;;5035127;28;20425;-67
2021/03/13 09:34:23;;;;;;;2.30;0.83;;;;;;;;;;5027078;28;20435;-67
2021/03/13 09:36:49;;;;;;;5.40;1.07;;;;;;;;;;5038157;28;20425;-67
2021/03/13 09:39:41;;;;;;;4.27;1.50;;;;;;;;;;5035754;28;20426;-67
2021/03/13 09:42:09;;;;;;;2.57;0.90;;;;;;;;;;5031904;28;20476;-67
2021/03/13 09:44:40;;;;;;;2.03;1.03;;;;;;;;;;5036030;28;20448;-67
2021/03/13 09:47:17;;;;;;;2.47;1.47;;;;;;;;;;5034604;28;20424;-67
2021/03/13 09:49:44;;;;;;;2.10;1.10;;;;;;;;;;5034552;28;20425;-67
2021/03/13 09:52:11;;;;;;;2.17;0.93;;;;;;;;;;5034645;28;20426;-67
2021/03/13 09:54:37;;;;;;;2.00;0.90;;;;;;;;;;5034424;28;20399;-67
2021/03/13 09:57:11;;;;;;;1.83;0.87;;;;;;;;;;5034830;28;20422;-67
2021/03/13 09:59:37;;;;;;;2.40;0.93;;;;;;;;;;5033958;28;20446;-67
2021/03/13 10:02:03;;;;;;;2.13;1.00;;;;;;;;;;5034751;28;20449;-67
2021/03/13 10:04:30;;;;;;;1.70;0.80;;;;;;;;;;5035572;28;20407;-67
2021/03/13 10:06:57;;;;;;;1.30;0.70;;;;;;;;;;5034510;28;20421;-67
2021/03/13 10:09:23;;;;;;;1.70;1.10;;;;;;;;;;5035552;28;20426;-67
2021/03/13 10:11:49;;;;;;;2.50;0.90;;;;;;;;;;5034373;28;20934;-67
2021/03/13 10:14:19;;;;;;;1.77;1.10;;;;;;;;;;5035251;28;20457;-67
2021/03/13 10:16:46;;;;;;;2.43;0.90;;;;;;;;;;5034506;28;20421;-67
2021/03/13 10:19:30;;;;;;;1.97;0.80;;;;;;;;;;5035020;28;20453;-67
2021/03/13 10:22:12;;;;;;;2.20;1.10;;;;;;;;;;5034166;28;20445;-67
2021/03/13 10:24:42;;;;;;;2.13;1.13;;;;;;;;;;5035129;28;20758;-67
2021/03/13 10:27:08;;;;;;;1.93;0.90;;;;;;;;;;5032612;28;20951;-67
2021/03/13 10:29:34;;;;;;;2.97;0.90;;;;;;;;;;5035092;28;20946;-67
2021/03/13 10:32:03;;;;;;;1.83;1.03;;;;;;;;;;5032709;28;20427;-67
2021/03/13 10:34:34;;;;;;;2.73;1.10;;;;;;;;;;5024924;28;20411;-67
2021/03/13 10:37:00;;;;;;;3.60;0.90;;;;;;;;;;5016698;28;20406;-67
2021/03/13 10:39:26;;;;;;;5.10;1.00;;;;;;;;;;5035080;28;20422;-67
2021/03/13 10:41:57;;;;;;;1.57;0.83;;;;;;;;;;5033885;28;20445;-71
2021/03/13 10:44:23;;;;;;;2.50;1.20;;;;;;;;;;5034914;28;20411;-66
2021/03/13 10:46:49;;;;;;;3.37;1.00;;;;;;;;;;5033963;28;20413;-69
2021/03/13 10:49:24;;;;;;;1.83;1.00;;;;;;;;;;5034589;28;20427;-67
2021/03/13 10:51:52;;;;;;;3.20;1.10;;;;;;;;;;5032111;28;20506;-68
2021/03/13 10:54:22;;;;;;;2.30;1.10;;;;;;;;;;5034046;28;20410;-67
2021/03/13 10:56:48;;;;;;;3.80;0.80;;;;;;;;;;5034713;28;20540;-67
2021/03/13 10:59:15;;;;;;;2.43;1.10;;;;;;;;;;5031914;28;20437;-67
2021/03/13 11:01:50;;;;;;;2.23;0.80;;;;;;;;;;5032990;28;20454;-67
2021/03/13 11:04:16;;;;;;;2.03;1.00;;;;;;;;;;5026755;28;20430;-67
2021/03/13 11:06:42;;;;;;;2.53;1.40;;;;;;;;;;5034355;28;20405;-67
2021/03/13 11:09:09;;;;;;;3.80;1.07;;;;;;;;;;5033060;28;20950;-67
2021/03/13 11:11:37;;;;;;;5.80;1.90;;;;;;;;;;5034153;28;20459;-67
2021/03/13 11:14:06;;;;;;;1.80;1.00;;;;;;;;;;5031911;28;20430;-67
2021/03/13 11:16:32;;;;;;;2.00;1.07;;;;;;;;;;5034301;28;20992;-67
2021/03/13 11:18:59;;;;;;;3.50;1.20;;;;;;;;;;5032662;28;20469;-68
2021/03/13 11:21:25;;;;;;;2.37;0.97;;;;;;;;;;5034004;28;20453;-68
2021/03/13 11:23:52;;;;;;;2.40;1.10;;;;;;;;;;5031726;28;20501;-67
2021/03/13 11:26:18;;;;;;;4.87;1.43;;;;;;;;;;5034114;28;20811;-67
2021/03/13 11:28:45;;;;;;;2.40;1.00;;;;;;;;;;5032981;28;20477;-68
2021/03/13 11:31:12;;;;;;;2.43;1.07;;;;;;;;;;5034401;28;20838;-68
2021/03/13 11:33:38;;;;;;;1.93;1.10;;;;;;;;;;5033245;28;20430;-68
2021/03/13 11:36:04;;;;;;;1.73;1.00;;;;;;;;;;5034186;28;20497;-68
2021/03/13 11:38:34;;;;;;;1.77;1.10;;;;;;;;;;5031368;28;20426;-67
2021/03/13 11:41:04;;;;;;;4.10;1.63;;;;;;;;;;5033714;28;20906;-67
2021/03/13 11:43:33;;;;;;;3.23;1.03;;;;;;;;;;5032568;28;20806;-67
2021/03/13 11:46:00;;;;;;;2.20;0.90;;;;;;;;;;5033801;28;20823;-68
2021/03/13 11:48:26;;;;;;;1.70;0.97;;;;;;;;;;5022377;28;20835;-67
2021/03/13 11:50:52;;;;;;;3.07;1.17;;;;;;;;;;5014142;28;20395;-68
2021/03/13 11:53:18;;;;;;;1.77;0.97;;;;;;;;;;5021157;28;20421;-68
2021/03/13 11:55:45;;;;;;;3.10;1.97;;;;;;;;;;5033776;28;20423;-68
2021/03/13 11:58:11;;;;;;;4.03;1.20;;;;;;;;;;5030672;28;20477;-67
2021/03/13 12:00:38;;;;;;;2.93;1.10;;;;;;;;;;5033282;28;20418;-68
2021/03/13 12:03:04;;;;;;;1.50;0.80;;;;;;;;;;5032249;28;20465;-68
2021/03/13 12:05:30;;;;;;;10.80;1.17;;;;;;;;;;5016460;28;20789;-68
2021/03/13 12:07:57;;;;;;;2.13;0.90;;;;;;;;;;5017117;28;20838;-68
2021/03/13 12:10:24;;;;;;;3.77;1.00;;;;;;;;;;5029780;28;20524;-68
2021/03/13 12:12:50;;;;;;;1.90;1.20;;;;;;;;;;5030238;28;20445;-68
2021/03/13 12:15:16;;;;;;;3.40;1.03;;;;;;;;;;5031034;28;20458;-67
2021/03/13 12:17:42;;;;;;;1.90;0.83;;;;;;;;;;5030309;28;20794;-69
2021/03/13 12:20:09;;;;;;;3.87;0.80;;;;;;;;;;5032872;28;20454;-69
2021/03/13 12:22:36;;;;;;;4.10;1.80;;;;;;;;;;5031880;28;20512;-68
2021/03/13 12:25:03;;;;;;;2.43;0.80;;;;;;;;;;5033036;28;20494;-69
2021/03/13 12:27:29;;;;;;;1.70;0.90;;;;;;;;;;5032342;28;20426;-68
2021/03/13 12:29:56;;;;;;;1.50;0.80;;;;;;;;;;5032485;28;20437;-69
2021/03/13 12:32:22;;;;;;;2.97;1.13;;;;;;;;;;5031977;28;20425;-69
2021/03/13 12:34:48;;;;;;;1.50;0.80;;;;;;;;;;5027836;28;20431;-69
2021/03/13 12:37:14;;;;;;;2.83;1.10;;;;;;;;;;5013586;28;20430;-67
2021/03/13 12:39:41;;;;;;;1.50;0.80;;;;;;;;;;5044836;28;20450;-68
2021/03/13 12:42:07;;;;;;;2.87;1.10;;;;;;;;;;5032804;28;20457;-68
2021/03/13 12:44:33;;;;;;;2.37;0.90;;;;;;;;;;5031586;28;20427;-68
2021/03/13 12:47:00;;;;;;;4.17;1.00;;;;;;;;;;5031594;28;20841;-68
2021/03/13 12:49:26;;;;;;;3.77;1.10;;;;;;;;;;5031705;28;20442;-68
2021/03/13 12:51:52;;;;;;;3.30;0.90;;;;;;;;;;5032774;28;20497;-68
2021/03/13 12:54:18;;;;;;;1.90;0.90;;;;;;;;;;5031820;28;20433;-68
2021/03/13 12:56:44;;;;;;;2.80;1.00;;;;;;;;;;5032673;28;20544;-68
2021/03/13 12:59:10;;;;;;;2.33;0.90;;;;;;;;;;5031633;28;20536;-68
2021/03/13 13:01:36;;;;;;;2.27;1.20;;;;;;;;;;5033027;28;20817;-68
2021/03/13 13:04:03;;;;;;;3.27;1.10;;;;;;;;;;5031618;28;20430;-68
2021/03/13 13:06:32;;;;;;;1.53;0.80;;;;;;;;;;5031576;28;20433;-68
2021/03/13 13:08:58;;;;;;;2.43;1.17;;;;;;;;;;5031476;28;20465;-68
2021/03/13 13:11:24;;;;;;;2.90;1.00;;;;;;;;;;5032727;28;20409;-68
2021/03/13 13:13:51;;;;;;;2.33;0.90;;;;;;;;;;5031509;28;20429;-68
2021/03/13 13:16:17;;;;;;;1.70;1.00;;;;;;;;;;5032548;28;20438;-68
2021/03/13 13:18:43;;;;;;;1.67;0.90;;;;;;;;;;5031225;28;20489;-68
2021/03/13 13:21:09;;;;;;;1.87;1.10;;;;;;;;;;5032657;28;20422;-68
2021/03/13 13:23:35;;;;;;;2.33;1.10;;;;;;;;;;5030233;28;20445;-68
2021/03/13 13:26:01;;;;;;;1.73;0.93;;;;;;;;;;5032782;28;20839;-68
2021/03/13 13:28:27;;;;;;;1.90;0.90;;;;;;;;;;5033829;28;20470;-68
2021/03/13 13:30:53;;;;;;;3.03;1.13;;;;;;;;;;5036016;28;20399;-68
2021/03/13 13:33:20;;;;;;;1.90;0.80;;;;;;;;;;5034122;28;20802;-68
2021/03/13 13:35:47;;;;;;;2.20;1.10;;;;;;;;;;5024125;28;20444;-68
2021/03/13 13:38:14;;;;;;;1.60;0.90;;;;;;;;;;5018420;28;20944;-67
2021/03/13 13:40:40;;;;;;;2.10;1.13;;;;;;;;;;5035814;28;20427;-68